Time;durP1;ratioP1;P1;durP2;ratioP2;P2;SDS_P1;SDS_P2;PMS_P1;PMS_P2;Temp;Humidity;BMP_temperature;BMP_pressure;BME280_temperature;BME280_humidity;BME280_pressure;Samples;Min_cycle;Max_cycle;Signal;HPM_P1;HPM_P2
2023/01/20 00:02:12;;;;;;;10.60;4.33;;;-1.20;99.90;;;;;;5135655;27;20039;-36
2023/01/20 00:04:38;;;;;;;11.93;4.63;;;-1.20;99.90;;;;;;5135633;27;20047;-34
2023/01/20 00:07:04;;;;;;;8.00;4.97;;;-1.10;99.90;;;;;;5117545;27;20043;-33
2023/01/20 00:09:29;;;;;;;9.27;4.17;;;-0.70;99.90;;;;;;5136078;27;20097;-33
2023/01/20 00:11:55;;;;;;;10.07;5.10;;;-1.00;99.90;;;;;;5135486;27;20053;-34
2023/01/20 00:14:21;;;;;;;8.07;4.60;;;-1.00;99.90;;;;;;5135460;27;20065;-34
2023/01/20 00:16:47;;;;;;;10.23;5.50;;;-0.90;99.90;;;;;;5117838;27;20479;-34
2023/01/20 00:19:13;;;;;;;10.33;5.10;;;-0.90;99.90;;;;;;5116994;27;20043;-34
2023/01/20 00:21:39;;;;;;;7.63;5.37;;;-0.80;99.90;;;;;;5117733;27;20373;-34
2023/01/20 00:24:05;;;;;;;11.03;5.53;;;-0.40;99.90;;;;;;5116922;27;20553;-34
2023/01/20 00:26:31;;;;;;;10.17;5.20;;;-0.80;99.90;;;;;;5135166;27;20080;-34
2023/01/20 00:28:57;;;;;;;7.60;5.00;;;-0.70;99.90;;;;;;5135066;27;20051;-35
2023/01/20 00:31:28;;;;;;;7.90;4.90;;;-0.80;99.90;;;;;;5135697;27;20054;-34
2023/01/20 00:33:56;;;;;;;7.27;4.57;;;-0.90;99.90;;;;;;5135135;27;20058;-33
2023/01/20 00:36:24;;;;;;;8.10;3.80;;;-1.00;99.90;;;;;;5135054;27;20035;-33
2023/01/20 00:38:50;;;;;;;8.00;4.07;;;-1.10;99.90;;;;;;5135552;27;20393;-33
2023/01/20 00:41:17;;;;;;;9.63;4.30;;;-1.30;99.90;;;;;;5116805;27;20397;-33
2023/01/20 00:43:43;;;;;;;11.93;4.60;;;-1.30;99.90;;;;;;5116932;27;20039;-33
2023/01/20 00:46:09;;;;;;;9.43;4.13;;;-1.40;99.90;;;;;;5134853;27;20047;-33
2023/01/20 00:48:36;;;;;;;8.00;4.63;;;-1.50;99.90;;;;;;5116556;27;20047;-33
2023/01/20 00:51:03;;;;;;;9.07;4.77;;;-1.60;99.90;;;;;;5116012;28;20142;-33
2023/01/20 00:53:28;;;;;;;13.77;6.47;;;-1.60;99.90;;;;;;5117138;27;20369;-32
2023/01/20 00:55:54;;;;;;;12.23;7.50;;;-1.60;99.90;;;;;;5100330;27;20044;-32
2023/01/20 00:58:20;;;;;;;22.60;8.63;;;-1.60;99.90;;;;;;5134820;27;20133;-32
2023/01/20 01:00:47;;;;;;;51.93;12.60;;;-1.50;99.90;;;;;;5134768;27;20496;-33
2023/01/20 01:03:13;;;;;;;52.10;14.63;;;-1.50;99.90;;;;;;5134698;27;20092;-32
2023/01/20 01:05:39;;;;;;;103.93;17.07;;;-1.50;99.90;;;;;;5134647;27;20043;-33
2023/01/20 01:08:04;;;;;;;114.90;19.90;;;-1.50;99.90;;;;;;5116836;28;20477;-33
2023/01/20 01:10:30;;;;;;;108.37;20.40;;;-1.40;99.90;;;;;;5117112;28;20473;-32
2023/01/20 01:13:01;;;;;;;168.07;24.27;;;-1.40;99.90;;;;;;5117394;28;20043;-32
2023/01/20 01:15:27;;;;;;;176.27;23.07;;;-1.30;99.90;;;;;;5135232;28;20051;-32
2023/01/20 01:17:54;;;;;;;227.17;28.83;;;-1.30;99.90;;;;;;5116502;28;20043;-32
2023/01/20 01:20:20;;;;;;;233.60;28.27;;;-1.30;99.90;;;;;;5134620;28;20540;-32
2023/01/20 01:22:45;;;;;;;195.67;27.30;;;-1.20;99.90;;;;;;5134588;28;20138;-32
2023/01/20 01:25:11;;;;;;;214.57;29.73;;;-1.20;99.90;;;;;;5134498;28;20085;-32
2023/01/20 01:27:37;;;;;;;209.30;28.90;;;-1.10;99.90;;;;;;5134640;27;20039;-32
2023/01/20 01:30:03;;;;;;;234.93;32.00;;;-1.00;99.90;;;;;;5134486;28;20044;-32
2023/01/20 01:32:29;;;;;;;278.17;33.63;;;-1.10;99.90;;;;;;5134436;28;20126;-32
2023/01/20 01:34:55;;;;;;;236.00;30.63;;;-1.10;99.90;;;;;;5134412;28;20125;-32
2023/01/20 01:37:21;;;;;;;208.77;29.20;;;-1.00;99.90;;;;;;5118830;27;20089;-32
2023/01/20 01:39:46;;;;;;;215.03;31.03;;;-1.00;99.90;;;;;;5120046;27;20058;-32
2023/01/20 01:42:14;;;;;;;216.13;32.27;;;-1.00;99.90;;;;;;5103351;27;20051;-32
2023/01/20 01:45:11;;;;;;;283.77;33.30;;;-1.00;99.90;;;;;;5120312;27;20043;-33
2023/01/20 01:47:43;;;;;;;262.70;34.70;;;-1.20;99.90;;;;;;5119942;27;20130;-32
2023/01/20 01:50:12;;;;;;;197.80;30.03;;;-1.10;99.90;;;;;;5138847;27;20134;-31
2023/01/20 01:52:41;;;;;;;278.60;32.33;;;-1.30;99.90;;;;;;5138217;27;20076;-32
2023/01/20 01:55:07;;;;;;;322.47;34.50;;;-1.30;99.90;;;;;;5138161;27;20047;-32
2023/01/20 01:57:34;;;;;;;319.27;32.83;;;-1.30;99.90;;;;;;5138130;27;20046;-31
2023/01/20 02:00:00;;;;;;;249.17;29.47;;;-1.50;99.90;;;;;;5119969;27;20508;-31
2023/01/20 02:02:25;;;;;;;178.27;26.23;;;-1.50;99.90;;;;;;5138105;27;20051;-31
2023/01/20 02:04:51;;;;;;;161.87;25.73;;;-1.60;99.90;;;;;;5138288;27;20043;-31
2023/01/20 02:07:19;;;;;;;104.40;23.37;;;-1.70;99.90;;;;;;5119591;27;20039;-31
2023/01/20 02:09:45;;;;;;;68.13;21.37;;;-1.70;99.90;;;;;;5138472;27;20050;-32
2023/01/20 02:12:16;;;;;;;59.93;21.50;;;-1.80;99.90;;;;;;5120464;27;20047;-30
2023/01/20 02:14:51;;;;;;;59.47;21.30;;;-1.80;99.90;;;;;;5138697;27;20184;-30
2023/01/20 02:17:24;;;;;;;56.83;21.77;;;-1.80;99.90;;;;;;5138312;27;20050;-31
2023/01/20 02:20:02;;;;;;;53.65;20.63;;;-1.80;99.90;;;;;;5119640;27;20116;-31
2023/01/20 02:23:12;;;;;;;57.97;21.43;;;-1.80;99.90;;;;;;5137913;27;20401;-30
2023/01/20 02:26:06;;;;;;;54.80;20.53;;;-1.90;99.90;;;;;;5074774;28;20048;-31
2023/01/20 02:28:50;;;;;;;;;;;-1.90;99.90;;;;;;5136525;27;20090;-32
2023/01/20 02:31:54;;;;;;;57.25;22.85;;;-1.80;99.90;;;;;;5137536;27;19920;-31
2023/01/20 02:34:25;;;;;;;;;;;-1.70;99.90;;;;;;5137929;27;20039;-30
2023/01/20 02:37:04;;;;;;;47.07;19.97;;;-1.80;99.90;;;;;;5137482;27;20426;-30
2023/01/20 02:39:48;;;;;;;52.70;21.67;;;-1.80;99.90;;;;;;5137423;27;20046;-31
2023/01/20 02:42:31;;;;;;;49.67;20.90;;;-1.80;99.90;;;;;;5137930;27;20054;-31
2023/01/20 02:45:01;;;;;;;46.63;19.50;;;-1.90;99.90;;;;;;5138456;27;20108;-31
2023/01/20 02:47:47;;;;;;;46.77;18.93;;;-1.80;99.90;;;;;;5137327;27;20385;-30
2023/01/20 02:50:27;;;;;;;46.60;20.73;;;-1.70;99.90;;;;;;5136557;27;20083;-31
2023/01/20 02:52:57;;;;;;;49.47;21.23;;;-1.70;99.90;;;;;;5137221;27;20151;-31
2023/01/20 02:55:38;;;;;;;47.27;18.77;;;-1.20;99.90;;;;;;5137079;27;20051;-30
2023/01/20 02:58:09;;;;;;;49.63;20.37;;;-1.70;99.90;;;;;;5119167;27;20047;-30
2023/01/20 03:00:58;;;;;;;44.20;17.57;;;-1.70;99.90;;;;;;5137543;27;20043;-31
2023/01/20 03:03:37;;;;;;;45.50;18.93;;;-1.70;99.90;;;;;;5136986;27;20488;-30
2023/01/20 03:06:09;;;;;;;46.87;20.77;;;-1.70;99.90;;;;;;5137100;27;20476;-31
2023/01/20 03:08:38;;;;;;;48.22;21.00;;;-1.70;99.90;;;;;;5137444;27;20039;-30
2023/01/20 03:11:07;;;;;;;47.30;19.77;;;-1.80;99.90;;;;;;5136736;27;20051;-30
2023/01/20 03:13:43;;;;;;;58.70;22.23;;;-1.80;99.90;;;;;;5136783;27;20039;-30
2023/01/20 03:16:19;;;;;;;54.20;21.57;;;-1.90;99.90;;;;;;5136703;27;20036;-30
2023/01/20 03:18:45;;;;;;;50.47;20.90;;;-1.90;99.90;;;;;;5136619;27;20134;-30
2023/01/20 03:21:12;;;;;;;62.63;26.60;;;-1.90;99.90;;;;;;5118294;27;20126;-29
2023/01/20 03:23:49;;;;;;;51.00;22.50;;;-1.90;99.90;;;;;;5136601;27;20039;-31
2023/01/20 03:26:17;;;;;;;47.40;21.30;;;-1.90;99.90;;;;;;5103027;27;20128;-31
2023/01/20 03:28:43;;;;;;;56.90;24.70;;;-1.80;99.90;;;;;;5136360;27;20069;-31
2023/01/20 03:31:23;;;;;;;50.63;22.50;;;-1.80;99.90;;;;;;5137220;27;20452;-30
2023/01/20 03:33:52;;;;;;;52.93;21.67;;;-1.80;99.90;;;;;;5136973;27;20082;-31
2023/01/20 03:36:20;;;;;;;59.30;25.33;;;-1.70;99.90;;;;;;5118447;27;20051;-30
2023/01/20 03:38:47;;;;;;;63.03;27.70;;;-1.20;99.90;;;;;;5118055;27;20043;-30
2023/01/20 03:41:29;;;;;;;79.97;28.90;;;-1.60;99.90;;;;;;5118703;27;20358;-30
2023/01/20 03:44:15;;;;;;;89.53;29.70;;;-1.50;99.90;;;;;;5136144;27;20059;-30
2023/01/20 03:47:11;;;;;;;109.10;32.47;;;-1.40;99.90;;;;;;5136264;27;20431;-30
2023/01/20 03:50:05;;;;;;;126.60;34.10;;;-1.30;99.90;;;;;;5117725;27;20408;-31
2023/01/20 03:52:40;;;;;;;;;;;-1.30;99.90;;;;;;5136139;27;20523;-31
2023/01/20 03:55:13;;;;;;;150.67;39.03;;;-1.10;99.90;;;;;;5136713;27;19927;-30
2023/01/20 03:58:03;;;;;;;137.83;37.40;;;-1.00;99.90;;;;;;5118374;27;20134;-31
2023/01/20 04:00:34;;;;;;;144.13;41.23;;;-0.90;99.90;;;;;;5135520;27;20095;-31
2023/01/20 04:03:05;;;;;;;161.00;45.67;;;-0.90;99.90;;;;;;5117910;27;20389;-31
2023/01/20 04:05:32;;;;;;;128.40;39.87;;;-0.90;99.90;;;;;;5136200;27;20047;-31
2023/01/20 04:08:04;;;;;;;131.40;38.23;;;-0.70;99.90;;;;;;5136440;27;20047;-32
2023/01/20 04:10:31;;;;;;;112.65;32.97;;;-0.80;99.90;;;;;;5135938;27;20043;-31
2023/01/20 04:12:57;;;;;;;146.13;40.30;;;-0.30;99.90;;;;;;5135517;27;20118;-31
2023/01/20 04:15:25;;;;;;;143.43;39.50;;;-0.70;99.90;;;;;;5135418;27;20172;-31
2023/01/20 04:17:51;;;;;;;127.47;36.63;;;-0.70;99.90;;;;;;5100359;27;20079;-32
2023/01/20 04:20:18;;;;;;;156.40;42.33;;;-0.10;99.90;;;;;;5135382;27;20083;-32
2023/01/20 04:22:49;;;;;;;190.47;47.27;;;-0.50;99.90;;;;;;5135955;27;20046;-32
2023/01/20 04:25:30;;;;;;;201.73;45.70;;;-0.50;99.90;;;;;;5135286;27;20404;-32
2023/01/20 04:27:56;;;;;;;240.97;47.83;;;-0.20;99.90;;;;;;5135462;27;20039;-32
2023/01/20 04:30:22;;;;;;;216.37;43.43;;;-0.60;99.90;;;;;;5117040;27;20393;-32
2023/01/20 04:32:47;;;;;;;228.10;47.07;;;-0.60;99.90;;;;;;5116950;27;20400;-33
2023/01/20 04:35:15;;;;;;;259.77;46.17;;;-0.50;99.90;;;;;;5135169;27;20074;-32
2023/01/20 04:37:41;;;;;;;294.63;53.17;;;-0.60;99.90;;;;;;5135939;27;20039;-32
2023/01/20 04:40:08;;;;;;;239.00;41.90;;;-0.40;99.90;;;;;;5135041;27;20392;-32
2023/01/20 04:42:34;;;;;;;244.03;43.60;;;-0.40;99.90;;;;;;5116818;27;20086;-34
2023/01/20 04:45:00;;;;;;;203.40;41.30;;;-0.40;99.90;;;;;;5134977;27;20093;-33
2023/01/20 04:47:28;;;;;;;189.03;45.30;;;-0.40;99.90;;;;;;5134897;27;20100;-32
2023/01/20 04:49:54;;;;;;;208.40;48.73;;;-0.40;99.90;;;;;;5134559;27;20051;-32
2023/01/20 04:52:19;;;;;;;192.00;42.13;;;-0.50;99.90;;;;;;5117324;27;20385;-33
2023/01/20 04:54:45;;;;;;;248.00;48.27;;;-0.30;99.90;;;;;;5135256;27;20043;-33
2023/01/20 04:57:11;;;;;;;193.20;40.60;;;-0.50;99.90;;;;;;5116797;28;20051;-32
2023/01/20 04:59:36;;;;;;;190.53;39.67;;;-0.50;99.90;;;;;;5134495;27;20126;-32
2023/01/20 05:02:02;;;;;;;191.47;37.37;;;-0.40;99.90;;;;;;5134771;27;20046;-32
2023/01/20 05:04:28;;;;;;;181.93;35.43;;;-0.40;99.90;;;;;;5134798;27;20090;-32
2023/01/20 05:06:53;;;;;;;148.33;35.83;;;-0.40;99.90;;;;;;5134652;27;20054;-33
2023/01/20 05:09:19;;;;;;;172.30;35.87;;;-0.60;99.90;;;;;;5134667;28;20370;-32
2023/01/20 05:11:45;;;;;;;233.00;48.07;;;-0.60;99.90;;;;;;5134011;27;20039;-33
2023/01/20 05:14:11;;;;;;;201.40;40.80;;;-0.50;99.90;;;;;;5134971;28;20181;-33
2023/01/20 05:16:37;;;;;;;204.57;44.03;;;-0.60;99.90;;;;;;5135133;28;20050;-33
2023/01/20 05:19:02;;;;;;;181.73;40.63;;;-0.50;99.90;;;;;;5134582;28;20050;-32
2023/01/20 05:21:28;;;;;;;179.60;41.67;;;-0.50;99.90;;;;;;5116338;28;20047;-33
2023/01/20 05:23:55;;;;;;;151.27;38.40;;;-0.70;99.90;;;;;;5135111;28;20072;-32
2023/01/20 05:26:24;;;;;;;162.03;34.47;;;-0.50;99.90;;;;;;5116262;28;20035;-32
2023/01/20 05:28:50;;;;;;;194.13;40.07;;;-0.70;99.90;;;;;;5134394;27;20040;-32
2023/01/20 05:31:16;;;;;;;174.80;42.20;;;-0.50;99.90;;;;;;5135290;28;20045;-32
2023/01/20 05:33:42;;;;;;;174.57;40.97;;;-0.70;99.90;;;;;;5134433;28;20545;-32
2023/01/20 05:36:09;;;;;;;159.33;38.77;;;-0.70;99.90;;;;;;5134392;28;20071;-34
2023/01/20 05:38:36;;;;;;;164.10;38.67;;;-0.70;99.90;;;;;;5134364;28;20055;-32
2023/01/20 05:41:03;;;;;;;148.00;35.70;;;-0.70;99.90;;;;;;5134437;28;20090;-32
2023/01/20 05:43:29;;;;;;;176.27;36.97;;;-0.50;99.90;;;;;;5099004;28;20399;-32
2023/01/20 05:45:55;;;;;;;180.97;36.43;;;-0.60;99.90;;;;;;5100108;28;20047;-32
2023/01/20 05:48:20;;;;;;;152.13;37.20;;;-0.60;99.90;;;;;;5116339;28;20485;-33
2023/01/20 05:50:46;;;;;;;168.80;35.87;;;-0.50;99.90;;;;;;5134653;28;20489;-32
2023/01/20 05:53:13;;;;;;;161.37;39.30;;;-0.70;99.90;;;;;;5133936;28;20073;-33
2023/01/20 05:55:39;;;;;;;148.77;34.70;;;-0.60;99.90;;;;;;5133931;28;20515;-32
2023/01/20 05:58:05;;;;;;;147.53;31.60;;;-0.70;99.90;;;;;;5134165;28;20051;-33
2023/01/20 06:00:30;;;;;;;155.20;33.30;;;-0.70;99.90;;;;;;5133887;28;20143;-33
2023/01/20 06:02:57;;;;;;;141.07;31.27;;;-0.70;99.90;;;;;;5134715;28;20078;-32
2023/01/20 06:05:23;;;;;;;148.73;37.07;;;-0.70;99.90;;;;;;5116311;28;20058;-32
2023/01/20 06:07:48;;;;;;;138.57;32.47;;;-0.50;99.90;;;;;;5134015;28;20044;-33
2023/01/20 06:10:15;;;;;;;135.10;33.20;;;-0.60;99.90;;;;;;5116766;28;20108;-33
2023/01/20 06:12:41;;;;;;;138.93;34.17;;;-0.60;99.90;;;;;;5134575;28;20043;-33
2023/01/20 06:15:08;;;;;;;143.13;33.77;;;-0.70;99.90;;;;;;5133988;28;20068;-32
2023/01/20 06:17:34;;;;;;;141.07;34.80;;;-0.60;99.90;;;;;;5115692;28;20039;-32
2023/01/20 06:19:59;;;;;;;147.90;34.13;;;-0.50;99.90;;;;;;5134177;28;20481;-32
2023/01/20 06:22:26;;;;;;;146.03;34.37;;;-0.50;99.90;;;;;;5116474;27;20049;-32
2023/01/20 06:24:52;;;;;;;169.57;35.70;;;-0.60;99.90;;;;;;5137618;27;20039;-32
2023/01/20 06:27:18;;;;;;;202.73;40.07;;;-0.60;99.90;;;;;;5119157;27;20108;-33
2023/01/20 06:29:43;;;;;;;158.63;36.47;;;-0.60;99.90;;;;;;5137433;27;20073;-32
2023/01/20 06:32:09;;;;;;;181.20;39.60;;;-0.60;99.90;;;;;;5137430;27;20039;-32
2023/01/20 06:34:35;;;;;;;157.80;39.60;;;-0.60;99.90;;;;;;5119707;27;20047;-33
2023/01/20 06:37:01;;;;;;;142.33;36.43;;;-0.50;99.90;;;;;;5137426;27;20035;-33
2023/01/20 06:39:27;;;;;;;153.03;38.33;;;-0.50;99.90;;;;;;5137942;27;20499;-33
2023/01/20 06:41:57;;;;;;;156.17;41.20;;;-0.40;99.90;;;;;;5137318;27;20043;-33
2023/01/20 06:44:23;;;;;;;165.23;39.27;;;-0.60;99.90;;;;;;5085441;27;20047;-33
2023/01/20 06:46:50;;;;;;;155.50;36.07;;;-0.60;99.90;;;;;;5138007;27;20084;-33
2023/01/20 06:49:16;;;;;;;167.27;40.17;;;-0.20;99.90;;;;;;5136910;27;20168;-34
2023/01/20 06:51:42;;;;;;;161.30;38.50;;;-0.50;99.90;;;;;;5137660;27;20481;-33
2023/01/20 06:54:08;;;;;;;148.83;38.70;;;-0.40;99.90;;;;;;5137093;27;20126;-32
2023/01/20 06:56:34;;;;;;;159.57;44.03;;;-0.40;99.90;;;;;;5137024;27;20074;-33
2023/01/20 06:59:00;;;;;;;145.13;33.63;;;-0.40;99.90;;;;;;5137301;27;20074;-32
2023/01/20 07:01:28;;;;;;;159.60;36.23;;;-0.40;99.90;;;;;;5118876;27;20091;-34
2023/01/20 07:03:54;;;;;;;144.07;37.20;;;-0.50;99.90;;;;;;5137657;27;20077;-33
2023/01/20 07:06:37;;;;;;;133.00;33.47;;;-0.50;99.90;;;;;;5136787;27;20126;-33
2023/01/20 07:09:05;;;;;;;134.80;33.63;;;-0.40;99.90;;;;;;5136523;27;20443;-32
2023/01/20 07:11:30;;;;;;;142.87;39.13;;;-0.50;99.90;;;;;;5118661;27;20058;-34
2023/01/20 07:13:57;;;;;;;130.47;34.33;;;-0.60;99.90;;;;;;5136679;27;20043;-35
2023/01/20 07:16:23;;;;;;;153.50;36.00;;;-0.50;99.90;;;;;;5136625;27;20043;-36
2023/01/20 07:18:51;;;;;;;132.87;33.73;;;-0.50;99.90;;;;;;5137130;27;20051;-33
2023/01/20 07:21:18;;;;;;;142.57;37.17;;;-0.40;99.90;;;;;;5136463;27;20544;-33
2023/01/20 07:23:44;;;;;;;148.53;36.90;;;-0.60;99.90;;;;;;5136470;27;20043;-33
2023/01/20 07:26:13;;;;;;;118.33;33.10;;;-0.60;99.90;;;;;;5136264;27;20035;-33
2023/01/20 07:28:39;;;;;;;142.23;38.67;;;-0.40;99.90;;;;;;5136182;27;20043;-34
2023/01/20 07:31:16;;;;;;;135.33;44.37;;;-0.40;99.90;;;;;;5136006;27;20099;-33
2023/01/20 07:33:42;;;;;;;137.90;40.10;;;-0.50;99.90;;;;;;5117667;27;20039;-33
2023/01/20 07:36:09;;;;;;;138.47;40.60;;;-0.40;99.90;;;;;;5135767;27;20042;-34
2023/01/20 07:38:35;;;;;;;141.10;42.13;;;-0.30;99.90;;;;;;5117795;27;20389;-32
2023/01/20 07:41:04;;;;;;;130.80;40.33;;;-0.40;99.90;;;;;;5135721;27;20556;-33
2023/01/20 07:43:30;;;;;;;134.37;37.37;;;-0.40;99.90;;;;;;5100847;27;20043;-32
2023/01/20 07:46:01;;;;;;;121.90;34.03;;;0.00;99.90;;;;;;5118526;27;20051;-33
2023/01/20 07:48:29;;;;;;;120.43;33.33;;;-0.30;99.90;;;;;;5136088;27;20436;-33
2023/01/20 07:51:00;;;;;;;131.40;40.87;;;-0.30;99.90;;;;;;5135521;27;20058;-34
2023/01/20 07:53:28;;;;;;;90.67;31.37;;;-0.40;99.90;;;;;;5135966;27;20055;-34
2023/01/20 07:55:55;;;;;;;104.00;37.40;;;-0.30;99.90;;;;;;5135864;27;20047;-35
2023/01/20 07:58:20;;;;;;;113.77;35.13;;;-0.40;99.90;;;;;;5135741;27;20050;-34
2023/01/20 08:00:47;;;;;;;119.07;38.40;;;-0.40;99.90;;;;;;5135705;27;20115;-33
2023/01/20 08:03:14;;;;;;;111.70;37.77;;;-0.40;99.90;;;;;;5135732;27;20055;-33
2023/01/20 08:05:41;;;;;;;96.60;32.67;;;0.00;99.90;;;;;;5135577;27;20045;-33
2023/01/20 08:08:06;;;;;;;117.47;35.83;;;-0.30;99.90;;;;;;5117347;27;20043;-33
2023/01/20 08:10:32;;;;;;;122.27;39.30;;;-0.40;99.90;;;;;;5135611;27;20054;-34
2023/01/20 08:12:58;;;;;;;104.13;33.80;;;-0.30;99.90;;;;;;5135552;27;20596;-36
2023/01/20 08:15:24;;;;;;;112.73;40.37;;;-0.30;99.90;;;;;;5136361;27;20129;-33
2023/01/20 08:17:57;;;;;;;103.90;36.93;;;-0.30;99.90;;;;;;5116967;27;20054;-34
2023/01/20 08:20:23;;;;;;;108.07;36.38;;;0.20;99.90;;;;;;5117350;27;20099;-33
2023/01/20 08:22:48;;;;;;;108.27;36.87;;;-0.20;99.90;;;;;;5135942;27;20111;-34
2023/01/20 08:25:14;;;;;;;101.17;35.00;;;-0.20;99.90;;;;;;5117240;27;20051;-34
2023/01/20 08:27:40;;;;;;;111.03;38.57;;;-0.20;99.90;;;;;;5116826;27;20050;-33
2023/01/20 08:30:07;;;;;;;102.83;35.63;;;-0.20;99.90;;;;;;5134882;27;20040;-36
2023/01/20 08:32:32;;;;;;;131.50;43.10;;;-0.20;99.90;;;;;;5116845;27;20409;-34
2023/01/20 08:34:58;;;;;;;112.97;45.83;;;-0.10;99.90;;;;;;5117069;27;20051;-34
2023/01/20 08:37:24;;;;;;;118.27;47.70;;;-0.20;99.90;;;;;;5135466;27;20118;-34
2023/01/20 08:39:50;;;;;;;106.83;40.20;;;-0.10;99.90;;;;;;5135970;27;20043;-34
2023/01/20 08:42:16;;;;;;;106.67;40.10;;;-0.10;99.90;;;;;;5135055;27;20408;-35
2023/01/20 08:44:42;;;;;;;98.30;35.20;;;-0.10;99.90;;;;;;5135643;27;20067;-35
2023/01/20 08:47:08;;;;;;;98.20;41.77;;;-0.10;99.90;;;;;;5134606;27;20047;-35
2023/01/20 08:49:34;;;;;;;99.60;40.50;;;-0.10;99.90;;;;;;5099617;27;20537;-35
2023/01/20 08:51:59;;;;;;;93.27;38.80;;;-0.10;99.90;;;;;;5134938;27;20054;-34
2023/01/20 08:54:28;;;;;;;103.17;44.77;;;-0.10;99.90;;;;;;5116962;27;20046;-34
2023/01/20 08:56:53;;;;;;;75.47;36.67;;;0.00;99.90;;;;;;5117614;27;20121;-36
2023/01/20 08:59:19;;;;;;;111.93;49.03;;;0.00;99.90;;;;;;5134803;27;20468;-34
2023/01/20 09:01:45;;;;;;;95.17;43.47;;;0.00;99.90;;;;;;5134736;27;20086;-35
2023/01/20 09:04:12;;;;;;;103.23;42.43;;;0.00;99.90;;;;;;5134758;27;20078;-36
2023/01/20 09:06:49;;;;;;;97.63;46.90;;;0.00;99.90;;;;;;5116724;28;20040;-35
2023/01/20 09:09:17;;;;;;;80.13;34.13;;;0.10;99.90;;;;;;5135360;27;20055;-35
2023/01/20 09:11:49;;;;;;;84.87;34.53;;;0.00;99.90;;;;;;5134673;27;20103;-35
2023/01/20 09:14:24;;;;;;;77.18;32.88;;;0.10;99.90;;;;;;5116632;28;20054;-34
2023/01/20 09:16:50;;;;;;;84.77;37.07;;;0.10;99.90;;;;;;5134709;28;20050;-37
2023/01/20 09:19:17;;;;;;;76.23;32.90;;;0.10;99.90;;;;;;5134583;28;20051;-37
2023/01/20 09:21:43;;;;;;;70.57;31.50;;;0.10;99.90;;;;;;5134905;28;20047;-36
2023/01/20 09:24:09;;;;;;;81.57;34.93;;;0.10;99.90;;;;;;5134543;28;20103;-37
2023/01/20 09:26:40;;;;;;;74.63;35.97;;;0.20;99.90;;;;;;5116551;28;20107;-36
2023/01/20 09:29:17;;;;;;;74.33;32.27;;;0.20;99.90;;;;;;5134571;27;20450;-35
2023/01/20 09:32:00;;;;;;;74.73;29.97;;;0.20;99.90;;;;;;5135387;28;20450;-35
2023/01/20 09:34:28;;;;;;;;;;;0.20;99.90;;;;;;5134891;28;20047;-35
2023/01/20 09:43:52;;;;;;;62.50;27.13;;;0.30;99.90;;;;;;5135256;28;20011;-37
2023/01/20 09:45:59;;;;;;;74.07;30.73;;;0.30;99.90;;;;;;5134274;28;20051;-35
2023/01/20 09:54:39;;;;;;;75.20;30.13;;;0.40;99.90;;;;;;5134232;28;20697;-35
2023/01/20 09:57:07;;;;;;;71.10;30.90;;;0.30;99.90;;;;;;5134922;27;20126;-38
2023/01/20 09:59:49;;;;;;;74.23;32.53;;;0.30;99.90;;;;;;5138157;27;20043;-38
2023/01/20 10:02:22;;;;;;;65.07;29.73;;;0.30;99.90;;;;;;5138188;27;20046;-38
2023/01/20 10:04:56;;;;;;;84.07;31.50;;;0.30;99.90;;;;;;5138178;27;20054;-35
2023/01/20 10:07:34;;;;;;;64.33;28.60;;;0.60;99.90;;;;;;5138845;27;20048;-38
2023/01/20 10:10:06;;;;;;;75.00;28.83;;;0.40;99.90;;;;;;5138272;27;20434;-38
2023/01/20 10:12:46;;;;;;;70.83;30.80;;;0.40;99.90;;;;;;5119736;27;20043;-38
2023/01/20 10:15:19;;;;;;;68.47;31.37;;;0.40;99.90;;;;;;5138778;27;20126;-38
2023/01/20 10:17:55;;;;;;;70.65;28.92;;;0.50;99.90;;;;;;5138449;27;20126;-39
2023/01/20 10:20:29;;;;;;;65.03;28.73;;;0.50;99.90;;;;;;5137768;27;20057;-39
2023/01/20 10:23:18;;;;;;;68.03;29.60;;;0.50;99.90;;;;;;5119467;27;20054;-39
2023/01/20 10:26:00;;;;;;;70.60;31.27;;;0.60;99.90;;;;;;5137297;27;20382;-39
2023/01/20 10:28:27;;;;;;;67.30;29.25;;;0.60;99.90;;;;;;5137869;27;20047;-38
2023/01/20 10:30:57;;;;;;;64.23;27.80;;;0.70;99.90;;;;;;5138440;27;20051;-38
2023/01/20 10:33:40;;;;;;;62.47;28.87;;;0.70;99.90;;;;;;5137621;27;20049;-38
2023/01/20 10:36:18;;;;;;;;;;;0.80;99.90;;;;;;5138003;27;20043;-38
2023/01/20 10:38:54;;;;;;;62.53;28.70;;;0.70;99.90;;;;;;5138373;27;19919;-39
2023/01/20 10:41:30;;;;;;;65.10;27.58;;;0.80;99.90;;;;;;5119039;27;20057;-39
2023/01/20 10:43:58;;;;;;;64.82;27.90;;;0.80;99.90;;;;;;5137360;27;20047;-38
2023/01/20 10:47:06;;;;;;;76.35;31.35;;;0.90;99.90;;;;;;5137193;27;20043;-37
2023/01/20 10:50:09;;;;;;;67.28;28.40;;;1.00;99.90;;;;;;5136887;27;20120;-37
2023/01/20 10:53:00;;;;;;;61.83;27.87;;;1.00;65.80;;;;;;5101733;27;20058;-38
2023/01/20 10:55:50;;;;;;;62.83;29.27;;;1.00;33.50;;;;;;5137938;27;20118;-38
2023/01/20 10:58:22;;;;;;;62.80;28.40;;;1.00;1.00;;;;;;5137881;27;20043;-38
2023/01/20 11:00:48;;;;;;;67.20;28.87;;;1.10;1.00;;;;;;5136978;27;20099;-38
2023/01/20 11:03:18;;;;;;;65.10;28.60;;;1.10;1.00;;;;;;5136643;27;20516;-38
2023/01/20 11:05:46;;;;;;;60.63;28.50;;;1.10;1.00;;;;;;5136836;27;20126;-38
2023/01/20 11:08:24;;;;;;;63.15;28.40;;;1.20;1.00;;;;;;5136823;27;20103;-38
2023/01/20 11:10:55;;;;;;;53.38;25.73;;;1.20;1.00;;;;;;5136031;27;20054;-39
2023/01/20 11:13:21;;;;;;;63.37;27.63;;;1.20;1.00;;;;;;5118676;27;20047;-39
2023/01/20 11:15:50;;;;;;;55.10;25.95;;;1.10;1.00;;;;;;5136751;27;20054;-38
2023/01/20 11:18:16;;;;;;;69.80;24.97;;;1.30;99.90;;;;;;5118458;27;20058;-39
2023/01/20 11:20:51;;;;;;;56.17;24.97;;;1.20;99.90;;;;;;5136958;27;20377;-38
2023/01/20 11:23:23;;;;;;;49.03;22.98;;;1.20;99.90;;;;;;5137195;27;20047;-38
2023/01/20 11:26:26;;;;;;;53.67;23.33;;;1.20;99.90;;;;;;5136508;27;20051;-38
2023/01/20 11:28:56;;;;;;;53.78;23.10;;;1.20;99.90;;;;;;5117606;27;20054;-38
2023/01/20 11:31:52;;;;;;;48.10;22.60;;;1.20;99.90;;;;;;5136437;27;20051;-37
2023/01/20 11:34:32;;;;;;;49.87;23.47;;;1.10;99.90;;;;;;5136953;27;20043;-38
2023/01/20 11:37:04;;;;;;;54.90;22.63;;;1.10;99.90;;;;;;5137124;27;20050;-37
2023/01/20 11:39:57;;;;;;;48.33;21.85;;;1.10;99.90;;;;;;5136250;27;20112;-38
2023/01/20 11:42:25;;;;;;;47.58;23.00;;;1.10;99.90;;;;;;5136269;27;20100;-38
2023/01/20 11:45:00;;;;;;;50.47;23.70;;;1.10;99.90;;;;;;5117839;27;20043;-37
2023/01/20 11:47:30;;;;;;;54.97;24.50;;;1.10;99.90;;;;;;5136639;27;20074;-37
2023/01/20 11:50:08;;;;;;;55.15;27.30;;;1.10;99.90;;;;;;5114222;28;20079;-38
2023/01/20 11:52:34;;;;;;;50.97;25.45;;;1.20;99.90;;;;;;5116351;28;20126;-38
2023/01/20 11:55:11;;;;;;;49.03;24.43;;;1.20;99.90;;;;;;5115079;28;20556;-38
2023/01/20 11:57:41;;;;;;;61.53;26.87;;;1.20;99.90;;;;;;5115358;28;20048;-38
2023/01/20 12:00:42;;;;;;;57.00;25.27;;;1.20;99.90;;;;;;5115271;28;20046;-37
2023/01/20 12:03:34;;;;;;;57.77;25.60;;;1.10;99.90;;;;;;5115231;28;20579;-37
2023/01/20 12:06:03;;;;;;;52.90;24.50;;;1.10;99.90;;;;;;5115696;28;20103;-38
2023/01/20 12:09:11;;;;;;;49.77;23.43;;;1.10;99.90;;;;;;5115101;28;20051;-37
2023/01/20 12:11:44;;;;;;;51.80;23.40;;;1.10;99.90;;;;;;5052144;28;20049;-38
2023/01/20 12:14:21;;;;;;;49.50;23.17;;;1.00;99.90;;;;;;5107799;28;20055;-37
2023/01/20 12:17:05;;;;;;;47.40;22.90;;;1.00;99.90;;;;;;5115047;28;20043;-37
2023/01/20 12:19:54;;;;;;;;;;;1.00;99.90;;;;;;5097395;28;20094;-36
2023/01/20 12:22:37;;;;;;;48.57;21.40;;;0.90;86.00;;;;;;5106952;28;19919;-37
2023/01/20 12:25:23;;;;;;;45.15;21.40;;;0.90;99.90;;;;;;5115567;28;20047;-38
2023/01/20 12:27:51;;;;;;;54.30;24.15;;;0.90;99.90;;;;;;5115252;28;20050;-38
2023/01/20 12:30:22;;;;;;;48.77;21.47;;;0.80;99.90;;;;;;5113772;28;20130;-35
2023/01/20 12:32:49;;;;;;;50.47;22.47;;;0.80;99.90;;;;;;5115007;28;20130;-38
2023/01/20 12:35:15;;;;;;;51.53;24.77;;;0.80;99.90;;;;;;5113607;28;20489;-35
2023/01/20 12:37:57;;;;;;;53.20;23.00;;;0.80;99.90;;;;;;5115154;28;20380;-38
2023/01/20 12:40:53;;;;;;;46.20;22.77;;;0.80;99.90;;;;;;5114602;28;20054;-35
2023/01/20 12:43:25;;;;;;;47.27;21.77;;;0.80;99.90;;;;;;5114453;28;20052;-35
2023/01/20 12:46:12;;;;;;;52.73;23.40;;;0.80;99.90;;;;;;5115164;28;20090;-36
2023/01/20 12:48:41;;;;;;;53.03;22.77;;;0.80;99.90;;;;;;5114713;28;20048;-35
2023/01/20 12:51:44;;;;;;;52.30;24.70;;;0.80;99.90;;;;;;5132446;27;20051;-35
2023/01/20 12:54:16;;;;;;;49.53;23.33;;;0.90;99.90;;;;;;5116596;27;20051;-37
2023/01/20 12:56:47;;;;;;;50.37;23.97;;;0.90;99.90;;;;;;5135754;27;20043;-36
2023/01/20 12:59:37;;;;;;;52.40;24.77;;;0.90;99.90;;;;;;5135961;27;20100;-38
2023/01/20 13:02:36;;;;;;;56.23;25.20;;;0.80;99.90;;;;;;5134802;27;20047;-36